Time;durP1;ratioP1;P1;durP2;ratioP2;P2;SDS_P1;SDS_P2;PMS_P1;PMS_P2;Temp;Humidity;BMP_temperature;BMP_pressure;BME280_temperature;BME280_humidity;BME280_pressure;Samples;Min_cycle;Max_cycle;Signal;HPM_P1;HPM_P2
2023/01/27 00:00:27;;;;;;;6.77;5.93;;;;;;;3.51;82.88;101965.84;5116939;28;20187;-71
2023/01/27 00:02:53;;;;;;;7.13;5.33;;;;;;;3.55;82.71;101967.53;5116819;28;20188;-70
2023/01/27 00:05:21;;;;;;;6.50;5.90;;;;;;;3.52;82.23;101967.59;5116705;28;20201;-70
2023/01/27 00:07:48;;;;;;;5.70;5.33;;;;;;;3.52;82.05;101972.88;5116670;28;20193;-69
2023/01/27 00:10:17;;;;;;;8.87;7.40;;;;;;;3.54;82.00;101964.00;5117025;28;20586;-71
2023/01/27 00:15:31;;;;;;;8.67;7.50;;;;;;;3.52;81.35;101976.44;5117171;28;20607;-70
2023/01/27 00:17:58;;;;;;;12.67;6.57;;;;;;;3.51;80.84;101979.97;5116510;28;20697;-70
2023/01/27 00:26:09;;;;;;;7.30;6.33;;;;;;;3.48;81.63;101977.41;5116683;28;20547;-70
2023/01/27 00:28:38;;;;;;;7.13;6.23;;;;;;;3.50;81.98;101974.72;5116319;27;20249;-70
2023/01/27 00:31:06;;;;;;;12.20;6.97;;;;;;;3.47;81.68;101972.13;5115062;28;20193;-70
2023/01/27 00:33:33;;;;;;;6.80;6.40;;;;;;;3.40;81.59;101985.50;5116225;28;20558;-70
2023/01/27 00:36:02;;;;;;;8.70;7.47;;;;;;;3.36;82.95;101986.47;5115183;28;20187;-70
2023/01/27 00:38:30;;;;;;;11.30;7.07;;;;;;;3.40;82.74;101982.88;5116284;28;20218;-70
2023/01/27 00:41:18;;;;;;;7.40;7.00;;;;;;;3.38;82.37;101978.50;5116387;28;20267;-70
2023/01/27 00:43:46;;;;;;;10.20;7.97;;;;;;;3.43;81.84;101979.28;5115484;28;20204;-70
2023/01/27 00:46:13;;;;;;;14.90;8.13;;;;;;;3.39;82.20;101977.59;5114773;28;20558;-70
2023/01/27 00:48:40;;;;;;;11.50;7.73;;;;;;;3.45;81.49;101989.81;5114658;28;20220;-70
2023/01/27 00:51:06;;;;;;;10.37;7.60;;;;;;;3.48;81.66;101980.03;5115895;28;20187;-70
2023/01/27 00:53:32;;;;;;;13.13;7.43;;;;;;;3.47;82.12;101983.59;5115864;28;20185;-70
2023/01/27 00:55:59;;;;;;;7.57;6.83;;;;;;;3.41;82.45;101981.94;5116112;28;20676;-70
2023/01/27 00:58:26;;;;;;;16.73;7.90;;;;;;;3.34;82.90;101979.47;5114546;28;20216;-70
2023/01/27 01:01:00;;;;;;;12.53;7.07;;;;;;;3.37;81.95;101977.59;5114500;28;20223;-70
2023/01/27 01:03:31;;;;;;;8.13;7.37;;;;;;;3.30;82.19;101976.00;5114506;28;20180;-70
2023/01/27 01:05:59;;;;;;;13.20;7.30;;;;;;;3.33;82.63;101983.91;5114661;28;20197;-70
2023/01/27 01:08:28;;;;;;;13.27;7.70;;;;;;;3.35;82.92;101990.03;5114277;28;20223;-70
2023/01/27 01:10:55;;;;;;;9.80;8.27;;;;;;;3.28;83.06;101987.53;5114267;28;20611;-70
2023/01/27 01:13:21;;;;;;;12.87;8.27;;;;;;;3.27;82.76;101985.78;5115757;28;20270;-70
2023/01/27 01:15:48;;;;;;;13.50;8.80;;;;;;;3.30;82.85;101986.59;5114188;28;20626;-70
2023/01/27 01:18:15;;;;;;;8.87;7.60;;;;;;;3.27;83.33;101991.97;5116022;28;20238;-70
2023/01/27 01:20:44;;;;;;;17.87;9.10;;;;;;;3.34;82.95;101998.88;5115331;28;20192;-70
2023/01/27 01:23:12;;;;;;;14.73;9.10;;;;;;;3.31;82.35;101998.94;5115331;28;20200;-70
2023/01/27 01:25:39;;;;;;;16.27;8.50;;;;;;;3.32;83.23;101989.22;5115538;28;20556;-70
2023/01/27 01:28:06;;;;;;;15.23;9.53;;;;;;;3.29;82.70;102007.81;5115589;28;20228;-70
2023/01/27 01:30:34;;;;;;;18.23;8.90;;;;;;;3.26;82.67;102000.81;5115168;28;20194;-70
2023/01/27 01:33:01;;;;;;;16.13;9.10;;;;;;;3.22;83.40;102020.31;5115686;27;20181;-70
2023/01/27 01:35:28;;;;;;;13.80;9.60;;;;;;;3.20;83.18;102008.88;5115311;27;20190;-70
2023/01/27 01:37:54;;;;;;;10.83;9.60;;;;;;;3.22;83.44;102016.78;5114919;28;20211;-70
2023/01/27 01:40:21;;;;;;;11.27;10.17;;;;;;;3.21;82.98;102013.28;5114944;28;20267;-70
2023/01/27 01:42:57;;;;;;;17.40;10.73;;;;;;;3.17;83.68;102024.81;5113665;28;20557;-70
2023/01/27 01:45:32;;;;;;;15.40;10.17;;;;;;;3.17;82.83;102020.41;5115344;28;20666;-70
2023/01/27 01:48:07;;;;;;;14.77;10.17;;;;;;;3.18;82.95;102019.50;5114763;28;20264;-70
2023/01/27 01:50:36;;;;;;;12.77;10.67;;;;;;;3.22;83.14;102028.25;5113558;28;20583;-70
2023/01/27 01:53:06;;;;;;;18.87;12.90;;;;;;;3.08;83.94;102030.28;5114832;28;20177;-70
2023/01/27 01:55:35;;;;;;;23.37;14.07;;;;;;;2.96;83.24;102034.91;5114958;28;20176;-70
2023/01/27 01:58:03;;;;;;;21.87;12.83;;;;;;;2.85;84.23;102038.66;5113260;28;20688;-70
2023/01/27 02:00:29;;;;;;;18.73;12.90;;;;;;;2.89;84.18;102041.22;5114566;28;20655;-70
2023/01/27 02:02:56;;;;;;;22.93;13.00;;;;;;;2.76;84.14;102045.88;5113250;28;20196;-70
2023/01/27 02:05:28;;;;;;;29.30;13.33;;;;;;;2.73;84.76;102053.88;5113137;28;20210;-70
2023/01/27 02:08:23;;;;;;;22.77;13.20;;;;;;;2.61;84.81;102054.09;5113159;28;20222;-70
2023/01/27 02:10:51;;;;;;;20.37;14.00;;;;;;;2.60;84.70;102048.81;5114758;28;20192;-70
2023/01/27 02:13:17;;;;;;;27.30;15.53;;;;;;;2.61;84.92;102051.44;5114382;28;20200;-70
2023/01/27 02:15:43;;;;;;;25.47;14.60;;;;;;;2.62;84.59;102054.97;5114547;28;20188;-70
2023/01/27 02:18:10;;;;;;;22.50;14.83;;;;;;;2.63;84.33;102054.03;5112927;28;20759;-71
2023/01/27 02:20:43;;;;;;;22.57;14.10;;;;;;;2.59;84.95;102062.97;5112978;28;20242;-70
2023/01/27 02:23:44;;;;;;;16.07;11.17;;;;;;;2.62;85.10;102055.81;5114324;28;20186;-70
2023/01/27 02:26:17;;;;;;;18.93;12.30;;;;;;;2.61;84.15;102054.09;5114328;28;20208;-70
2023/01/27 02:28:43;;;;;;;18.77;13.40;;;;;;;2.51;84.57;102055.13;5112786;28;20221;-70
2023/01/27 02:31:10;;;;;;;19.80;13.77;;;;;;;2.54;84.83;102053.31;5112821;28;20608;-70
2023/01/27 02:33:37;;;;;;;14.17;11.87;;;;;;;2.59;84.14;102055.88;5114034;28;20190;-70
2023/01/27 02:36:13;;;;;;;21.90;12.67;;;;;;;2.53;83.88;102056.84;5113578;28;20284;-70
2023/01/27 02:38:52;;;;;;;16.50;11.80;;;;;;;2.49;84.93;102049.88;5113010;28;20209;-70
2023/01/27 02:41:39;;;;;;;19.80;12.13;;;;;;;2.58;85.27;102051.47;5114252;28;20184;-70
2023/01/27 02:44:07;;;;;;;17.43;12.27;;;;;;;2.58;84.74;102055.91;5112568;28;20654;-70
2023/01/27 02:46:33;;;;;;;16.67;12.47;;;;;;;2.55;84.86;102052.41;5129689;27;20262;-70
2023/01/27 02:49:00;;;;;;;18.97;10.30;;;;;;;2.55;84.80;102054.19;5112533;28;20257;-70
2023/01/27 02:51:27;;;;;;;16.97;11.07;;;;;;;2.49;84.81;102047.25;5112588;28;20199;-70
2023/01/27 02:53:54;;;;;;;13.80;10.10;;;;;;;2.56;85.12;102050.63;5114019;28;20273;-70
2023/01/27 02:56:21;;;;;;;15.10;10.63;;;;;;;2.53;85.43;102059.50;5112548;28;20556;-70
2023/01/27 02:58:47;;;;;;;13.27;10.67;;;;;;;2.45;85.46;102055.25;5112435;28;20209;-70
2023/01/27 03:01:17;;;;;;;18.40;11.07;;;;;;;2.50;85.56;102056.91;5112488;28;20289;-70
2023/01/27 03:03:46;;;;;;;19.97;10.67;;;;;;;2.52;85.81;102056.88;5113660;28;20221;-70
2023/01/27 03:06:17;;;;;;;20.57;11.70;;;;;;;2.52;85.82;102057.75;5115240;28;20291;-70
2023/01/27 03:08:44;;;;;;;17.37;10.33;;;;;;;2.55;85.34;102057.69;5117868;28;20225;-69
2023/01/27 03:11:13;;;;;;;19.40;10.97;;;;;;;2.57;86.04;102057.69;5116881;28;20211;-70
2023/01/27 03:13:39;;;;;;;15.90;10.83;;;;;;;2.55;85.79;102060.34;5117835;28;20672;-70
2023/01/27 03:18:55;;;;;;;15.93;11.47;;;;;;;2.54;85.98;102060.38;5116587;28;20702;-70
2023/01/27 03:21:21;;;;;;;15.27;11.57;;;;;;;2.54;86.39;102060.38;5116693;28;20304;-70
2023/01/27 03:23:48;;;;;;;20.60;11.33;;;;;;;2.52;86.14;102052.47;5116265;28;20229;-70
2023/01/27 03:26:19;;;;;;;13.37;11.17;;;;;;;2.50;86.28;102048.97;5116290;28;20309;-70
2023/01/27 03:29:53;;;;;;;10.87;9.73;;;;;;;2.53;86.51;102058.63;5116502;28;20561;-70
2023/01/27 03:31:39;;;;;;;20.23;11.63;;;;;;;2.44;87.04;102057.03;5116422;28;20207;-70
2023/01/27 03:34:06;;;;;;;13.00;9.37;;;;;;;2.44;87.19;102051.75;5116092;28;20658;-70
2023/01/27 03:47:40;;;;;;;20.10;9.27;;;;;;;2.41;87.36;102051.75;5117391;28;20188;-70
2023/01/27 03:50:12;;;;;;;14.00;9.30;;;;;;;2.47;87.86;102051.69;5117099;28;20198;-70
2023/01/27 03:52:39;;;;;;;12.17;10.87;;;;;;;2.40;88.02;102051.81;5117151;28;20189;-70
2023/01/27 03:55:08;;;;;;;11.70;8.93;;;;;;;2.43;88.15;102055.25;5117533;28;20638;-70
2023/01/27 03:57:36;;;;;;;14.20;10.53;;;;;;;2.42;88.30;102052.63;5116929;27;20191;-70
2023/01/27 04:00:04;;;;;;;16.40;10.33;;;;;;;2.37;88.35;102047.44;5117003;28;20190;-70
2023/01/27 04:08:08;;;;;;;15.77;9.53;;;;;;;2.27;88.72;102043.19;5116957;28;20218;-70
2023/01/27 04:10:34;;;;;;;12.07;9.77;;;;;;;2.32;88.42;102043.97;5117006;28;20268;-70
2023/01/27 04:13:00;;;;;;;15.33;10.33;;;;;;;2.26;88.77;102052.88;5117004;28;20187;-70
2023/01/27 04:15:27;;;;;;;16.00;9.97;;;;;;;2.34;88.38;102047.47;5116684;28;20185;-70
2023/01/27 04:17:53;;;;;;;12.77;10.13;;;;;;;2.31;88.42;102045.75;5115227;28;20208;-70
2023/01/27 04:20:19;;;;;;;17.07;10.33;;;;;;;2.33;89.07;102043.97;5116509;28;20197;-70
2023/01/27 04:22:46;;;;;;;12.07;10.43;;;;;;;2.32;88.84;102047.53;5116777;28;20249;-70
2023/01/27 04:25:12;;;;;;;17.60;11.40;;;;;;;2.35;88.99;102046.59;5116919;28;20211;-70
2023/01/27 04:27:39;;;;;;;19.40;12.60;;;;;;;2.34;88.80;102052.75;5116362;28;20185;-70
2023/01/27 04:30:06;;;;;;;17.00;10.40;;;;;;;2.29;89.03;102044.03;5116362;28;20667;-70
2023/01/27 04:32:32;;;;;;;12.97;9.93;;;;;;;2.29;89.25;102047.53;5116377;28;20194;-70
2023/01/27 04:34:59;;;;;;;14.10;10.87;;;;;;;2.36;88.73;102052.75;5116245;28;20183;-70
2023/01/27 04:37:25;;;;;;;15.63;10.27;;;;;;;2.30;89.21;102049.31;5116232;28;20270;-70
2023/01/27 04:39:51;;;;;;;21.10;11.47;;;;;;;2.31;88.97;102051.03;5116356;28;20211;-70
2023/01/27 04:42:18;;;;;;;14.60;10.97;;;;;;;2.35;89.31;102057.16;5116707;28;20638;-70
2023/01/27 04:44:44;;;;;;;15.83;10.67;;;;;;;2.41;89.24;102062.34;5115965;28;20196;-70
2023/01/27 04:47:10;;;;;;;16.67;10.60;;;;;;;2.36;88.91;102072.13;5116577;28;20190;-70
2023/01/27 04:49:37;;;;;;;10.80;9.20;;;;;;;2.40;88.97;102065.03;5116206;28;20222;-70
2023/01/27 04:52:03;;;;;;;12.00;10.73;;;;;;;2.39;89.26;102064.13;5116713;28;20620;-71
2023/01/27 04:54:30;;;;;;;15.43;10.27;;;;;;;2.48;89.15;102068.41;5116269;28;20644;-71
2023/01/27 04:56:59;;;;;;;14.27;9.87;;;;;;;2.46;89.27;102072.84;5116451;28;20270;-71
2023/01/27 04:59:25;;;;;;;15.50;10.17;;;;;;;2.51;89.66;102071.88;5115796;28;20596;-70
2023/01/27 05:01:52;;;;;;;13.20;10.77;;;;;;;2.53;89.71;102077.13;5115743;28;20222;-70
2023/01/27 05:04:18;;;;;;;16.77;9.90;;;;;;;2.51;89.33;102081.56;5115688;28;20210;-70
2023/01/27 05:06:44;;;;;;;13.00;8.77;;;;;;;2.55;89.57;102078.84;5116110;28;20204;-70
2023/01/27 05:09:11;;;;;;;15.00;9.33;;;;;;;2.65;89.11;102082.22;5115490;28;20692;-70
2023/01/27 05:11:37;;;;;;;12.10;9.93;;;;;;;2.59;89.10;102081.47;5115541;28;20188;-70
2023/01/27 05:14:03;;;;;;;11.33;10.17;;;;;;;2.55;89.32;102081.50;5115526;28;20198;-70
2023/01/27 05:16:30;;;;;;;13.30;9.97;;;;;;;2.61;89.12;102085.81;5115656;28;20180;-70
2023/01/27 05:18:56;;;;;;;14.00;10.13;;;;;;;2.64;88.44;102087.53;5115495;28;20203;-70
2023/01/27 05:21:27;;;;;;;11.57;10.47;;;;;;;2.63;88.89;102078.72;5115612;28;20556;-70
2023/01/27 05:23:53;;;;;;;11.67;9.77;;;;;;;2.68;89.27;102078.63;5115247;28;20196;-70
2023/01/27 05:26:25;;;;;;;12.33;9.77;;;;;;;2.65;88.79;102086.63;5115210;28;20247;-70
2023/01/27 05:28:54;;;;;;;11.03;10.00;;;;;;;2.71;88.70;102089.19;5114890;28;20214;-70
2023/01/27 05:31:30;;;;;;;17.17;10.33;;;;;;;2.74;88.09;102091.78;5115139;28;20186;-70
2023/01/27 05:33:58;;;;;;;11.10;9.60;;;;;;;2.71;89.06;102087.41;5115396;28;20594;-70
2023/01/27 05:36:25;;;;;;;13.40;10.40;;;;;;;2.71;88.75;102079.47;5115562;28;20710;-71
2023/01/27 05:38:53;;;;;;;13.83;11.97;;;;;;;2.73;88.92;102084.72;5114877;28;20256;-70
2023/01/27 05:41:20;;;;;;;11.67;10.53;;;;;;;2.83;88.40;102093.41;5114956;28;20184;-70
2023/01/27 05:43:51;;;;;;;13.57;10.50;;;;;;;2.79;87.94;102083.75;5114864;28;20191;-70
2023/01/27 05:46:20;;;;;;;10.73;9.73;;;;;;;2.77;89.00;102095.22;5114808;28;20565;-70
2023/01/27 05:48:49;;;;;;;10.17;9.43;;;;;;;2.78;88.89;102098.75;5114911;28;20609;-70
2023/01/27 05:51:17;;;;;;;10.27;9.13;;;;;;;2.74;88.38;102102.34;5115292;27;20276;-70
2023/01/27 05:53:44;;;;;;;11.23;10.33;;;;;;;2.77;88.96;102095.22;5115105;28;20179;-71
2023/01/27 05:56:12;;;;;;;12.10;10.00;;;;;;;2.85;88.56;102088.91;5114947;27;20191;-71
2023/01/27 05:58:39;;;;;;;10.50;9.43;;;;;;;2.83;88.18;102090.75;5114830;28;20545;-70
2023/01/27 06:01:11;;;;;;;9.37;8.53;;;;;;;2.78;88.69;102093.47;5114581;28;20193;-70
2023/01/27 06:03:38;;;;;;;9.83;9.03;;;;;;;2.74;88.56;102091.78;5114756;28;20179;-70
2023/01/27 06:06:05;;;;;;;10.00;8.70;;;;;;;2.83;88.20;102090.75;5114426;28;20293;-70
2023/01/27 06:08:32;;;;;;;9.80;8.97;;;;;;;2.86;88.10;102091.56;5114389;28;20206;-70
2023/01/27 06:10:59;;;;;;;10.27;9.37;;;;;;;2.86;88.61;102090.69;5114390;28;20285;-71
2023/01/27 06:13:25;;;;;;;9.63;9.07;;;;;;;2.84;88.14;102090.69;5114634;28;20191;-71
2023/01/27 06:15:53;;;;;;;9.47;8.43;;;;;;;2.89;88.34;102090.63;5114268;28;20192;-71
2023/01/27 06:18:21;;;;;;;9.90;8.90;;;;;;;2.80;88.10;102086.34;5114763;28;20213;-70
2023/01/27 06:20:48;;;;;;;9.73;8.83;;;;;;;2.89;88.63;102085.34;5114251;28;20195;-70
2023/01/27 06:23:16;;;;;;;10.90;8.80;;;;;;;2.83;87.86;102098.69;5114118;28;20206;-70
2023/01/27 06:25:44;;;;;;;8.83;8.23;;;;;;;2.89;88.36;102090.63;5114124;28;20209;-70
2023/01/27 06:28:11;;;;;;;8.63;7.93;;;;;;;2.86;87.76;102095.97;5114073;28;20699;-71
2023/01/27 06:30:52;;;;;;;8.47;7.63;;;;;;;2.92;87.72;102107.34;5113968;28;20179;-70
2023/01/27 06:33:18;;;;;;;7.70;7.20;;;;;;;2.98;87.87;102111.63;5114090;28;20181;-70
2023/01/27 06:35:45;;;;;;;7.30;7.10;;;;;;;2.92;87.57;102114.38;5114463;28;20667;-70
2023/01/27 06:38:14;;;;;;;7.33;7.13;;;;;;;2.93;87.23;102118.78;5114063;28;20210;-70
2023/01/27 06:40:41;;;;;;;8.00;7.60;;;;;;;2.96;87.17;102121.38;5113090;28;20614;-70
2023/01/27 06:43:11;;;;;;;7.80;7.30;;;;;;;2.99;87.33;102126.59;5113899;28;20190;-71
2023/01/27 06:45:38;;;;;;;7.77;7.13;;;;;;;2.97;87.42;102128.44;5114075;28;20728;-70
2023/01/27 06:48:04;;;;;;;7.00;6.67;;;;;;;3.00;87.24;102127.50;5113739;28;20217;-70
2023/01/27 06:50:31;;;;;;;7.67;7.37;;;;;;;2.95;86.72;102122.28;5114083;28;20219;-70
2023/01/27 06:53:01;;;;;;;8.53;7.80;;;;;;;2.96;87.24;102121.38;5113734;28;20190;-70
2023/01/27 06:55:29;;;;;;;9.70;9.00;;;;;;;2.93;87.17;102129.38;5114051;28;20186;-70
2023/01/27 06:57:55;;;;;;;8.00;7.50;;;;;;;3.04;87.14;102130.06;5113615;28;20207;-70
2023/01/27 07:00:22;;;;;;;8.43;7.93;;;;;;;3.02;86.88;102133.59;5113583;28;20679;-70
2023/01/27 07:02:49;;;;;;;8.17;7.87;;;;;;;3.05;86.85;102133.56;5113633;28;20187;-70
2023/01/27 07:05:16;;;;;;;8.60;8.17;;;;;;;3.01;87.00;102143.31;5113814;28;20192;-70
2023/01/27 07:07:42;;;;;;;7.60;7.20;;;;;;;3.05;86.45;102139.72;5113719;28;20195;-70
2023/01/27 07:10:09;;;;;;;9.00;8.50;;;;;;;2.98;86.52;102135.44;5114082;28;20180;-70
2023/01/27 07:12:36;;;;;;;10.20;8.53;;;;;;;2.98;87.24;102146.91;5113885;28;20655;-70
2023/01/27 07:15:08;;;;;;;7.93;7.40;;;;;;;3.00;87.07;102148.66;5113591;28;20191;-71
2023/01/27 07:17:34;;;;;;;8.37;7.97;;;;;;;2.96;87.62;102146.06;5114040;28;20186;-71
2023/01/27 07:20:02;;;;;;;8.17;7.67;;;;;;;2.88;87.02;102144.44;5113551;28;20215;-71
2023/01/27 07:22:29;;;;;;;8.87;8.23;;;;;;;2.98;87.46;102148.69;5113584;28;20574;-70
2023/01/27 07:24:55;;;;;;;8.10;7.73;;;;;;;2.91;87.51;102152.34;5114018;28;20180;-70
2023/01/27 07:27:24;;;;;;;8.77;7.97;;;;;;;3.01;86.92;102155.69;5113433;28;20204;-70
2023/01/27 07:29:51;;;;;;;9.33;8.83;;;;;;;2.97;87.08;102158.41;5113297;28;20231;-70
2023/01/27 07:32:17;;;;;;;9.63;9.03;;;;;;;3.07;87.70;102163.53;5113665;28;20557;-70
2023/01/27 07:34:44;;;;;;;8.90;8.40;;;;;;;3.00;87.46;102157.47;5113382;28;20555;-70
2023/01/27 07:37:10;;;;;;;8.93;8.43;;;;;;;2.97;87.42;102162.81;5113548;28;20663;-70
2023/01/27 07:39:37;;;;;;;9.00;8.50;;;;;;;3.02;87.36;102163.63;5113271;28;20212;-70
2023/01/27 07:42:05;;;;;;;9.40;8.87;;;;;;;2.98;87.39;102167.19;5113876;28;20204;-70
2023/01/27 07:44:31;;;;;;;9.43;8.80;;;;;;;3.00;87.04;102167.19;5113634;28;20693;-70
2023/01/27 07:46:58;;;;;;;10.47;9.53;;;;;;;3.05;88.06;102170.63;5113202;28;20208;-70
2023/01/27 07:49:25;;;;;;;10.87;8.97;;;;;;;3.10;87.80;102172.28;5113187;28;20205;-70
2023/01/27 07:51:53;;;;;;;8.63;8.20;;;;;;;3.15;87.66;102167.78;5114702;28;20366;-70
2023/01/27 07:54:19;;;;;;;9.63;8.90;;;;;;;3.22;87.31;102172.97;5117066;28;20195;-70
2023/01/27 07:56:45;;;;;;;9.97;9.33;;;;;;;3.26;87.47;102174.69;5117531;28;20192;-70
2023/01/27 07:59:12;;;;;;;10.13;9.33;;;;;;;3.27;87.06;102173.75;5116930;28;20764;-70
2023/01/27 08:01:40;;;;;;;8.80;8.27;;;;;;;3.28;86.88;102168.44;5117221;28;20290;-70
2023/01/27 08:04:07;;;;;;;8.60;8.17;;;;;;;3.24;86.46;102177.34;5116893;28;20658;-70
2023/01/27 08:06:33;;;;;;;9.43;8.93;;;;;;;3.23;87.30;102172.06;5117013;28;20569;-70
2023/01/27 08:08:59;;;;;;;9.77;9.17;;;;;;;3.32;86.96;102170.13;5116978;28;20679;-70
2023/01/27 08:11:26;;;;;;;10.47;9.63;;;;;;;3.32;86.41;102171.91;5116730;28;20650;-71
2023/01/27 08:13:52;;;;;;;9.37;8.67;;;;;;;3.35;86.60;102175.38;5116707;28;20677;-71
2023/01/27 08:16:18;;;;;;;9.30;8.70;;;;;;;3.35;86.57;102179.78;5116935;28;20547;-71
2023/01/27 08:18:45;;;;;;;9.70;9.03;;;;;;;3.34;86.56;102181.56;5116505;28;20217;-71
2023/01/27 08:21:12;;;;;;;10.00;9.40;;;;;;;3.41;86.38;102175.25;5116586;28;20232;-71
2023/01/27 08:23:38;;;;;;;9.60;9.10;;;;;;;3.43;86.13;102180.53;5116695;28;20620;-71
2023/01/27 08:26:06;;;;;;;9.93;9.10;;;;;;;3.41;85.88;102177.03;5116798;28;20227;-71
2023/01/27 08:28:34;;;;;;;9.70;9.10;;;;;;;3.42;85.98;102181.41;5116571;28;20215;-71
2023/01/27 08:31:12;;;;;;;8.33;8.03;;;;;;;3.43;86.00;102179.66;5116889;28;20538;-71
2023/01/27 08:33:40;;;;;;;9.40;8.90;;;;;;;3.52;86.15;102182.09;5116958;28;20189;-71
2023/01/27 08:36:10;;;;;;;8.43;8.13;;;;;;;3.52;86.03;102187.41;5116579;28;20616;-71
2023/01/27 08:38:37;;;;;;;8.63;8.10;;;;;;;3.53;85.66;102189.19;5116128;27;20238;-70
2023/01/27 08:41:16;;;;;;;9.03;8.63;;;;;;;3.55;86.16;102190.88;5116171;28;20267;-70
2023/01/27 08:43:42;;;;;;;8.80;8.43;;;;;;;3.59;85.34;102184.63;5116437;28;20568;-71
2023/01/27 08:46:09;;;;;;;9.97;8.70;;;;;;;3.60;85.34;102190.81;5115955;28;20571;-71
2023/01/27 08:48:36;;;;;;;7.93;7.53;;;;;;;3.63;85.28;102188.09;5115982;27;20209;-71
2023/01/27 08:51:04;;;;;;;9.30;8.73;;;;;;;3.67;85.05;102197.72;5115937;27;20659;-71
2023/01/27 08:53:31;;;;;;;10.70;8.73;;;;;;;3.67;84.99;102196.88;5116463;28;20196;-71
2023/01/27 08:56:02;;;;;;;7.73;7.30;;;;;;;3.67;84.93;102203.03;5116154;28;20193;-71
2023/01/27 08:58:28;;;;;;;8.70;8.20;;;;;;;3.69;85.29;102205.63;5116086;28;20212;-71
2023/01/27 09:00:59;;;;;;;8.37;7.97;;;;;;;3.69;84.77;102202.97;5115773;28;20191;-71
2023/01/27 09:03:25;;;;;;;7.77;7.57;;;;;;;3.70;85.26;102204.75;5115003;28;20204;-71
2023/01/27 09:05:51;;;;;;;9.23;8.60;;;;;;;3.70;84.80;102204.75;5115646;28;20188;-71
2023/01/27 09:08:18;;;;;;;8.87;8.33;;;;;;;3.68;85.62;102209.19;5116075;28;20205;-71
2023/01/27 09:10:44;;;;;;;8.93;8.33;;;;;;;3.76;84.79;102216.09;5115572;28;20192;-71
2023/01/27 09:13:11;;;;;;;8.87;8.40;;;;;;;3.76;84.75;102224.06;5116119;28;20185;-70
2023/01/27 09:15:37;;;;;;;8.10;7.70;;;;;;;3.78;85.16;102224.00;5115554;28;20184;-70
2023/01/27 09:18:04;;;;;;;7.57;7.20;;;;;;;3.78;85.29;102222.25;5115407;28;20201;-70
2023/01/27 09:20:33;;;;;;;8.57;7.93;;;;;;;3.70;84.67;102231.22;5115318;28;20209;-71
2023/01/27 09:23:00;;;;;;;8.10;7.77;;;;;;;3.70;84.94;102229.44;5115581;28;20288;-71
2023/01/27 09:25:26;;;;;;;8.20;7.80;;;;;;;3.71;85.36;102231.22;5115521;28;20665;-71
2023/01/27 09:27:57;;;;;;;7.67;7.47;;;;;;;3.78;85.62;102235.50;5115553;28;20231;-70
2023/01/27 09:30:25;;;;;;;9.17;8.27;;;;;;;3.85;84.74;102230.94;5115816;27;20181;-71
2023/01/27 09:32:51;;;;;;;7.73;7.43;;;;;;;3.83;84.79;102238.03;5115111;28;20650;-71
2023/01/27 09:35:18;;;;;;;8.77;8.27;;;;;;;3.79;84.87;102239.88;5115152;28;20192;-70
2023/01/27 09:37:55;;;;;;;8.03;7.73;;;;;;;3.85;84.86;102246.81;5115213;28;20200;-69
2023/01/27 09:40:28;;;;;;;8.60;7.93;;;;;;;3.91;84.61;102249.38;5115685;28;20205;-70
2023/01/27 09:43:16;;;;;;;7.73;7.43;;;;;;;3.90;85.06;102257.34;5115266;28;20255;-70
2023/01/27 09:46:20;;;;;;;8.17;7.63;;;;;;;3.82;84.98;102255.72;5115238;28;20223;-70
2023/01/27 09:48:53;;;;;;;7.93;7.67;;;;;;;3.90;84.71;102252.91;5115360;28;20229;-70
2023/01/27 09:51:25;;;;;;;7.67;7.37;;;;;;;3.91;85.04;102256.47;5115129;28;20227;-70
2023/01/27 09:54:09;;;;;;;8.43;7.93;;;;;;;3.90;85.10;102252.91;5114714;28;20189;-70
2023/01/27 09:56:58;;;;;;;9.13;8.53;;;;;;;3.86;85.38;102253.91;5114694;28;20248;-70
2023/01/27 09:59:31;;;;;;;7.80;7.17;;;;;;;3.83;84.59;102251.28;5114859;28;20227;-70
2023/01/27 10:02:16;;;;;;;8.30;7.97;;;;;;;3.76;84.97;102247.91;5114872;28;20182;-70
2023/01/27 10:04:52;;;;;;;7.33;6.97;;;;;;;3.87;84.74;102249.47;5114800;28;20195;-70
2023/01/27 10:07:51;;;;;;;7.90;7.50;;;;;;;3.83;85.38;102259.22;5114793;28;20197;-70
2023/01/27 10:10:40;;;;;;;8.47;7.97;;;;;;;3.88;84.66;102254.75;5081500;28;20208;-70
2023/01/27 10:13:15;;;;;;;9.27;8.37;;;;;;;3.90;85.27;102249.38;5114286;28;20287;-70
2023/01/27 10:16:23;;;;;;;7.23;6.93;;;;;;;3.93;85.53;102259.97;5114515;28;20177;-70
2023/01/27 10:19:14;;;;;;;8.30;7.90;;;;;;;3.91;85.10;102264.41;5114389;28;20208;-70
2023/01/27 10:22:14;;;;;;;6.17;5.97;;;;;;;3.92;84.60;102256.41;5114556;28;20588;-70
2023/01/27 10:25:18;;;;;;;8.27;7.73;;;;;;;3.88;84.74;102256.50;5114812;28;20257;-70
2023/01/27 10:27:47;;;;;;;7.63;7.33;;;;;;;3.90;84.64;102255.56;5114002;28;20215;-69
2023/01/27 10:30:32;;;;;;;8.10;7.70;;;;;;;3.86;85.33;102248.59;5114371;28;20562;-70
2023/01/27 10:33:20;;;;;;;14.00;7.13;;;;;;;3.88;84.84;102261.78;5114386;28;20201;-70
2023/01/27 10:35:57;;;;;;;7.87;7.57;;;;;;;3.89;84.79;102258.25;5114579;28;20177;-71
2023/01/27 10:38:33;;;;;;;7.23;6.93;;;;;;;3.97;84.87;102258.97;5114485;28;20209;-70
2023/01/27 10:41:23;;;;;;;10.00;7.20;;;;;;;3.97;84.43;102249.22;5113919;28;20169;-70
2023/01/27 10:44:23;;;;;;;8.53;8.00;;;;;;;3.95;85.02;102263.41;5113880;28;20185;-70
2023/01/27 10:46:55;;;;;;;9.10;7.80;;;;;;;4.01;84.29;102265.97;5113862;28;20208;-70
2023/01/27 10:49:30;;;;;;;7.67;7.33;;;;;;;3.99;84.73;102265.97;5113777;28;20247;-70
2023/01/27 10:52:04;;;;;;;6.90;6.70;;;;;;;3.94;84.32;102267.84;5113787;28;20204;-70
2023/01/27 10:54:37;;;;;;;8.37;7.67;;;;;;;3.99;84.34;102268.63;5114018;28;20176;-70
2023/01/27 10:57:32;;;;;;;8.20;7.80;;;;;;;4.02;84.21;102267.69;5114021;28;20184;-70
2023/01/27 11:00:11;;;;;;;7.37;7.07;;;;;;;4.02;84.42;102263.31;5113620;28;20652;-70
2023/01/27 11:03:11;;;;;;;8.23;7.70;;;;;;;3.94;83.81;102269.66;5114154;28;20177;-70
2023/01/27 11:05:48;;;;;;;7.27;6.97;;;;;;;3.99;83.66;102270.41;5114453;28;20526;-70
2023/01/27 11:08:18;;;;;;;8.30;7.63;;;;;;;4.02;83.36;102260.66;5113403;28;20311;-70
2023/01/27 11:13:36;;;;;;;7.53;7.03;;;;;;;4.00;83.71;102248.34;5114131;28;20183;-70
2023/01/27 11:16:04;;;;;;;6.73;6.53;;;;;;;4.04;82.93;102248.22;5113374;28;20276;-70
2023/01/27 11:18:35;;;;;;;7.27;6.77;;;;;;;4.03;82.65;102250.91;5113683;28;20544;-70
2023/01/27 11:21:05;;;;;;;6.00;5.90;;;;;;;4.11;83.02;102241.00;5114114;28;20177;-70
2023/01/27 11:23:37;;;;;;;6.17;5.80;;;;;;;4.13;82.40;102246.28;5113439;28;20288;-70
2023/01/27 11:26:55;;;;;;;6.23;6.13;;;;;;;4.13;81.89;102251.59;5114162;28;20184;-70
2023/01/27 11:29:37;;;;;;;5.80;5.67;;;;;;;4.16;81.84;102251.53;5073008;28;20224;-70
2023/01/27 11:32:32;;;;;;;6.17;5.97;;;;;;;4.22;81.34;102249.63;5117835;28;20192;-70
2023/01/27 11:35:13;;;;;;;5.67;5.57;;;;;;;4.25;81.87;102244.25;5117420;28;20276;-70
2023/01/27 11:37:43;;;;;;;4.77;4.67;;;;;;;4.37;81.16;102237.81;5117642;28;20184;-70
2023/01/27 11:40:16;;;;;;;5.47;5.33;;;;;;;4.46;81.28;102234.97;5117248;28;20255;-71
2023/01/27 11:42:44;;;;;;;5.30;5.20;;;;;;;4.46;80.34;102231.44;5117364;28;20209;-70
2023/01/27 11:45:15;;;;;;;4.47;4.43;;;;;;;4.43;80.23;102227.09;5117810;28;20203;-70
2023/01/27 11:47:44;;;;;;;5.33;5.23;;;;;;;4.33;80.59;102229.97;5117023;27;20197;-69
2023/01/27 11:50:26;;;;;;;5.40;5.20;;;;;;;4.31;80.42;102231.75;5117707;28;20184;-70
2023/01/27 11:53:09;;;;;;;5.27;5.07;;;;;;;4.42;80.18;102230.63;5117443;28;20596;-70
2023/01/27 11:55:41;;;;;;;4.70;4.60;;;;;;;4.40;80.38;102231.56;5117126;28;20177;-70
2023/01/27 11:58:22;;;;;;;4.57;4.57;;;;;;;4.45;79.99;102230.59;5117434;28;20215;-70
2023/01/27 12:00:58;;;;;;;5.90;4.27;;;;;;;4.43;79.29;102221.78;5117351;28;20173;-70
2023/01/27 12:03:45;;;;;;;4.67;4.53;;;;;;;4.53;79.35;102225.09;5117251;28;20185;-70
2023/01/27 12:06:25;;;;;;;4.80;4.70;;;;;;;4.53;79.24;102219.81;5117446;28;20293;-70
2023/01/27 12:08:52;;;;;;;4.97;4.50;;;;;;;4.55;78.68;102215.34;5117255;27;20675;-69
2023/01/27 12:11:20;;;;;;;4.80;4.80;;;;;;;4.52;78.80;102220.69;5117317;28;20276;-70
2023/01/27 12:13:50;;;;;;;4.40;4.33;;;;;;;4.58;78.63;102215.25;5116710;28;20276;-70